Weather at Arad Airport

Public forecast

Using degrees Celsius for public forecast. Weather courtesy of forecast.io.

Closest aviation weather report (METAR) to Arad Airport

Closest report is Ben Gurion International Airport, 49.4 nm (91.6 km) NNW.

2022/11/30 10:50 (retrieved 12 minutes ago)

LLBG 301050Z 25009KT 9999 FEW038 22/13 Q1015 NOSIG

Closest aviation forecast (TAF) to Arad Airport

Closest forecast is Ben Gurion International Airport, 49.4 nm (91.6 km) NNW.

2022/11/30 06:13 (retrieved 5 hours ago)

TAF FSIA 300505Z 3006/0106 22008KT 9999 FEW024 TAF LLBG 300507Z 3006/0106 15006KT 9999 SCT035 TEMPO 3006/3007 8000 RA BKN030 BECMG 3007/3009 25010KT BECMG 3015/3017 12005KT CAVOK TX22/3011Z TN15/0104Z